Time;durP1;ratioP1;P1;durP2;ratioP2;P2;SDS_P1;SDS_P2;PMS_P1;PMS_P2;Temp;Humidity;BMP_temperature;BMP_pressure;BME280_temperature;BME280_humidity;BME280_pressure;Samples;Min_cycle;Max_cycle;Signal;HPM_P1;HPM_P2
2023/09/06 00:02:11;;;;;;;6.70;4.38;;;19.50;99.90;;;;;;4977518;28;20058;-44
2023/09/06 00:04:37;;;;;;;7.20;4.57;;;19.50;99.90;;;;;;4994537;28;20121;-46
2023/09/06 00:07:03;;;;;;;11.32;6.30;;;19.50;99.90;;;;;;4994557;28;20092;-45
2023/09/06 00:09:29;;;;;;;9.18;6.57;;;19.40;99.90;;;;;;4994540;28;20057;-45
2023/09/06 00:11:55;;;;;;;10.15;6.90;;;19.40;99.90;;;;;;4993958;28;20054;-45
2023/09/06 00:14:20;;;;;;;10.45;6.45;;;19.40;99.90;;;;;;4994187;28;20086;-45
2023/09/06 00:16:49;;;;;;;8.55;6.35;;;19.40;99.90;;;;;;4994336;28;20100;-44
2023/09/06 00:19:14;;;;;;;10.30;6.63;;;19.40;99.90;;;;;;5009564;28;20108;-45
2023/09/06 00:21:43;;;;;;;10.15;6.32;;;19.30;99.90;;;;;;4994386;28;20046;-45
2023/09/06 00:24:12;;;;;;;8.90;5.97;;;19.30;99.90;;;;;;4994378;28;20181;-44
2023/09/06 00:26:39;;;;;;;8.25;5.60;;;19.30;99.90;;;;;;4994419;28;20046;-45
2023/09/06 00:29:08;;;;;;;9.15;6.25;;;19.20;99.90;;;;;;4994093;28;20046;-45
2023/09/06 00:31:36;;;;;;;8.65;6.30;;;19.20;99.90;;;;;;4994327;28;20082;-45
2023/09/06 00:34:02;;;;;;;9.52;6.90;;;19.10;99.90;;;;;;4994203;28;20053;-45
2023/09/06 00:36:29;;;;;;;;;;;19.10;99.90;;;;;;4994672;28;20043;-46
2023/09/06 00:38:56;;;;;;;10.90;7.03;;;19.10;99.90;;;;;;4994012;28;19932;-45
2023/09/06 00:41:23;;;;;;;10.15;6.47;;;19.10;99.90;;;;;;4994052;28;20288;-45
2023/09/06 00:43:49;;;;;;;10.30;7.00;;;19.10;99.90;;;;;;4993911;28;20493;-45
2023/09/06 00:46:15;;;;;;;10.93;7.88;;;19.10;99.90;;;;;;4994068;28;20051;-45
2023/09/06 00:48:41;;;;;;;10.63;7.78;;;19.10;99.90;;;;;;5009598;28;20053;-45
2023/09/06 00:51:07;;;;;;;13.23;7.30;;;19.10;99.90;;;;;;4994273;28;20038;-45
2023/09/06 00:53:33;;;;;;;11.18;7.50;;;19.10;99.90;;;;;;4976685;28;20073;-45
2023/09/06 00:56:01;;;;;;;;;;;19.00;99.90;;;;;;4994425;28;20403;-45
2023/09/06 00:58:29;;;;;;;9.75;6.80;;;18.90;99.90;;;;;;4993934;28;19922;-45
2023/09/06 01:00:55;;;;;;;9.40;6.45;;;18.90;99.90;;;;;;4993938;28;20057;-45
2023/09/06 01:03:20;;;;;;;10.85;7.80;;;18.90;99.90;;;;;;4977186;28;20435;-45
2023/09/06 01:05:57;;;;;;;9.60;7.38;;;18.80;99.90;;;;;;4993894;28;20049;-45
2023/09/06 01:08:28;;;;;;;;;;;18.80;99.90;;;;;;4994429;28;20124;-46
2023/09/06 01:10:54;;;;;;;11.43;7.07;;;18.70;99.90;;;;;;4993775;28;19922;-45
2023/09/06 01:13:20;;;;;;;10.20;7.10;;;18.70;99.90;;;;;;5009106;28;20096;-45
2023/09/06 01:15:46;;;;;;;12.45;7.68;;;18.70;99.90;;;;;;4993835;28;20105;-45
2023/09/06 01:18:13;;;;;;;10.90;7.13;;;18.70;99.90;;;;;;4993766;28;20050;-45
2023/09/06 01:20:52;;;;;;;9.65;6.63;;;18.70;99.90;;;;;;4993685;28;20042;-45
2023/09/06 01:23:26;;;;;;;10.45;7.13;;;18.70;99.90;;;;;;4993789;28;20411;-45
2023/09/06 01:25:53;;;;;;;10.55;7.55;;;18.70;99.90;;;;;;4996987;28;20554;-44
2023/09/06 01:28:19;;;;;;;10.05;6.93;;;18.70;99.90;;;;;;4997500;28;20055;-45
2023/09/06 01:30:44;;;;;;;11.55;7.32;;;18.70;99.90;;;;;;4997338;28;20121;-45
2023/09/06 01:33:10;;;;;;;13.23;8.70;;;18.70;99.90;;;;;;4980140;28;20080;-46
2023/09/06 01:35:36;;;;;;;11.88;8.18;;;18.70;99.90;;;;;;4997246;28;20043;-45
2023/09/06 01:38:01;;;;;;;12.10;7.85;;;18.60;99.90;;;;;;4997076;28;20131;-44
2023/09/06 01:40:27;;;;;;;12.57;8.98;;;18.60;99.90;;;;;;5012493;28;20494;-45
2023/09/06 01:42:54;;;;;;;13.95;9.02;;;18.60;99.90;;;;;;4997182;28;20053;-45
2023/09/06 01:45:19;;;;;;;;;;;18.60;99.90;;;;;;4997564;28;20403;-45
2023/09/06 01:47:48;;;;;;;12.25;8.90;;;18.50;99.90;;;;;;4980006;28;19921;-45
2023/09/06 01:50:19;;;;;;;14.23;8.90;;;18.60;99.90;;;;;;4997069;28;20054;-45
2023/09/06 01:52:46;;;;;;;12.98;8.48;;;18.60;99.90;;;;;;4997521;28;20057;-45
2023/09/06 01:55:12;;;;;;;14.10;8.10;;;18.60;99.90;;;;;;4996944;28;20172;-44
2023/09/06 01:57:38;;;;;;;11.48;8.15;;;18.60;99.90;;;;;;4996947;28;20085;-44
2023/09/06 02:00:27;;;;;;;11.70;8.10;;;18.60;99.90;;;;;;4996873;28;20054;-44
2023/09/06 02:02:55;;;;;;;11.98;7.65;;;18.60;99.90;;;;;;4996536;28;20050;-45
2023/09/06 02:05:20;;;;;;;12.90;8.88;;;18.60;99.90;;;;;;4996478;28;20050;-44
2023/09/06 02:07:46;;;;;;;11.23;8.05;;;18.60;99.90;;;;;;4996790;28;20399;-45
2023/09/06 02:10:12;;;;;;;13.65;8.57;;;18.60;99.90;;;;;;4996720;28;20042;-45
2023/09/06 02:12:39;;;;;;;13.43;9.10;;;18.50;99.90;;;;;;4996809;28;20053;-44
2023/09/06 02:15:07;;;;;;;12.05;8.18;;;18.60;99.90;;;;;;4996539;28;20078;-44
2023/09/06 02:17:34;;;;;;;12.68;9.07;;;18.60;99.90;;;;;;4996447;28;20050;-45
2023/09/06 02:20:17;;;;;;;13.70;9.57;;;18.60;99.90;;;;;;4996860;28;20050;-45
2023/09/06 02:22:43;;;;;;;13.85;9.60;;;18.50;99.90;;;;;;4996809;28;20058;-45
2023/09/06 02:25:09;;;;;;;;;;;18.50;99.90;;;;;;4996877;28;20046;-44
2023/09/06 02:27:35;;;;;;;12.95;8.93;;;18.40;99.90;;;;;;4996207;28;20277;-44
2023/09/06 02:30:05;;;;;;;14.57;8.45;;;18.40;99.90;;;;;;4996136;28;20086;-44
2023/09/06 02:32:32;;;;;;;23.45;8.95;;;18.30;99.90;;;;;;4996322;28;20042;-44
2023/09/06 02:34:58;;;;;;;12.98;8.82;;;18.20;99.90;;;;;;4996084;28;20050;-45
2023/09/06 02:37:23;;;;;;;12.02;7.85;;;18.10;99.90;;;;;;4995263;28;20057;-45
2023/09/06 02:39:52;;;;;;;14.00;8.75;;;18.20;99.90;;;;;;4996043;28;20054;-44
2023/09/06 02:42:21;;;;;;;14.70;7.88;;;18.10;99.90;;;;;;4996048;28;20555;-44
2023/09/06 02:44:47;;;;;;;12.63;8.07;;;18.10;99.90;;;;;;4995524;28;20104;-45
2023/09/06 02:47:16;;;;;;;12.27;8.68;;;18.10;99.90;;;;;;4996008;28;20054;-44
2023/09/06 02:49:45;;;;;;;12.02;8.18;;;18.10;99.90;;;;;;4996205;28;20046;-45
2023/09/06 02:52:28;;;;;;;11.15;7.65;;;18.10;99.90;;;;;;4995991;28;20085;-45
2023/09/06 02:54:55;;;;;;;11.38;8.05;;;18.10;99.90;;;;;;4995924;28;20403;-46
2023/09/06 02:57:21;;;;;;;9.85;7.53;;;18.10;99.90;;;;;;4995564;28;20050;-45
2023/09/06 02:59:46;;;;;;;10.80;7.50;;;18.10;99.90;;;;;;4978602;28;20053;-45
2023/09/06 03:02:12;;;;;;;11.60;7.40;;;18.00;99.90;;;;;;4995675;28;20055;-45
2023/09/06 03:04:40;;;;;;;11.32;7.32;;;18.00;99.90;;;;;;4995847;28;20042;-44
2023/09/06 03:07:09;;;;;;;10.68;8.00;;;18.00;99.90;;;;;;4995534;28;20129;-44
2023/09/06 03:09:36;;;;;;;9.98;6.47;;;18.00;99.90;;;;;;4995309;28;20092;-44
2023/09/06 03:12:16;;;;;;;10.98;7.03;;;17.90;99.90;;;;;;5010456;28;20129;-45
2023/09/06 03:14:44;;;;;;;10.25;6.78;;;17.90;99.90;;;;;;4995500;28;20108;-44
2023/09/06 03:17:22;;;;;;;11.07;7.40;;;17.90;99.90;;;;;;4995406;28;20050;-44
2023/09/06 03:19:53;;;;;;;11.15;7.22;;;17.90;99.90;;;;;;4978136;28;20046;-44
2023/09/06 03:22:21;;;;;;;10.95;8.02;;;17.90;99.90;;;;;;4995218;28;20055;-44
2023/09/06 03:24:48;;;;;;;11.15;7.50;;;17.90;99.90;;;;;;4994977;28;20511;-45
2023/09/06 03:27:17;;;;;;;13.02;8.18;;;17.90;99.90;;;;;;4995225;28;20050;-45
2023/09/06 03:29:50;;;;;;;11.93;7.82;;;17.90;99.90;;;;;;5010365;28;20053;-44
2023/09/06 03:32:17;;;;;;;11.18;7.88;;;17.90;99.90;;;;;;4994990;28;20046;-45
2023/09/06 03:34:45;;;;;;;12.32;7.90;;;17.90;99.90;;;;;;4994983;28;20046;-44
2023/09/06 03:37:11;;;;;;;13.40;8.60;;;17.90;99.90;;;;;;4994832;28;20498;-45
2023/09/06 03:39:41;;;;;;;10.30;7.53;;;17.80;99.90;;;;;;5010219;28;20050;-45
2023/09/06 03:42:10;;;;;;;11.48;7.50;;;17.80;99.90;;;;;;4994832;28;20141;-45
2023/09/06 03:44:37;;;;;;;11.30;7.47;;;17.80;99.90;;;;;;4992567;28;20054;-44
2023/09/06 03:47:05;;;;;;;10.63;7.47;;;17.80;99.90;;;;;;4994335;28;20113;-44
2023/09/06 03:49:35;;;;;;;11.05;7.55;;;17.80;99.90;;;;;;4977534;28;20089;-44
2023/09/06 03:52:05;;;;;;;10.10;7.00;;;17.80;99.90;;;;;;4995169;28;20077;-44
2023/09/06 03:54:34;;;;;;;10.52;7.03;;;17.70;99.90;;;;;;4994722;28;20046;-44
2023/09/06 03:57:04;;;;;;;10.13;6.88;;;17.70;99.90;;;;;;4994602;28;20104;-45
2023/09/06 03:59:35;;;;;;;9.73;6.72;;;17.70;99.90;;;;;;4977448;28;20046;-45
2023/09/06 04:02:01;;;;;;;10.30;6.80;;;17.60;99.90;;;;;;4994567;28;20126;-44
2023/09/06 04:04:28;;;;;;;9.18;6.28;;;17.60;99.90;;;;;;4994331;28;20487;-44
2023/09/06 04:06:54;;;;;;;8.98;5.70;;;17.60;99.90;;;;;;4994461;28;20129;-45
2023/09/06 04:09:27;;;;;;;9.00;6.13;;;17.60;99.90;;;;;;4994866;28;20073;-44
2023/09/06 04:11:53;;;;;;;9.60;6.55;;;17.50;99.90;;;;;;4994633;28;20053;-44
2023/09/06 04:14:22;;;;;;;9.43;6.40;;;17.50;99.90;;;;;;5009444;28;20487;-45
2023/09/06 04:16:48;;;;;;;9.18;6.10;;;17.50;99.90;;;;;;4994390;28;20046;-44
2023/09/06 04:19:14;;;;;;;;;;;17.50;99.90;;;;;;4994624;28;20513;-44
2023/09/06 04:21:40;;;;;;;9.00;6.30;;;17.40;99.90;;;;;;4976952;28;20016;-45
2023/09/06 04:24:07;;;;;;;8.20;5.88;;;17.40;99.90;;;;;;5009458;28;20100;-44
2023/09/06 04:26:33;;;;;;;9.55;5.95;;;17.40;99.90;;;;;;4994192;28;20042;-44
2023/09/06 04:28:59;;;;;;;;;;;17.40;99.90;;;;;;4994496;28;20125;-45
2023/09/06 04:31:25;;;;;;;9.52;6.78;;;17.30;99.90;;;;;;4994267;28;20077;-45
2023/09/06 04:33:51;;;;;;;9.20;5.95;;;17.30;99.90;;;;;;4994868;28;20166;-45
2023/09/06 04:36:19;;;;;;;9.65;6.13;;;17.30;99.90;;;;;;4994495;28;20050;-45
2023/09/06 04:38:46;;;;;;;9.07;6.03;;;17.30;99.90;;;;;;4994397;28;20184;-45
2023/09/06 04:41:14;;;;;;;9.05;6.32;;;17.30;99.90;;;;;;4994090;28;20493;-45
2023/09/06 04:43:40;;;;;;;9.23;5.88;;;17.30;99.90;;;;;;4993856;28;20066;-48
2023/09/06 04:46:06;;;;;;;8.50;5.70;;;17.30;99.90;;;;;;4994502;28;20053;-47
2023/09/06 04:48:32;;;;;;;10.32;6.35;;;17.20;99.90;;;;;;4994110;28;20049;-45
2023/09/06 04:50:59;;;;;;;8.65;5.97;;;17.20;99.90;;;;;;5009268;28;20050;-46
2023/09/06 04:53:25;;;;;;;7.85;5.90;;;17.20;99.90;;;;;;4976946;28;20053;-45
2023/09/06 04:55:52;;;;;;;9.27;6.22;;;17.20;99.90;;;;;;4994142;28;20103;-46
2023/09/06 04:58:19;;;;;;;8.07;6.07;;;17.20;99.90;;;;;;4993934;28;20043;-46
2023/09/06 05:00:47;;;;;;;;;;;17.10;99.90;;;;;;4998052;28;20064;-49
2023/09/06 05:03:17;;;;;;;8.13;5.70;;;17.10;99.90;;;;;;4981178;28;19967;-48
2023/09/06 05:05:43;;;;;;;8.35;5.82;;;17.10;99.90;;;;;;4997769;28;20101;-45
2023/09/06 05:08:09;;;;;;;8.95;6.38;;;17.10;99.90;;;;;;4997773;28;20526;-45
2023/09/06 05:10:36;;;;;;;8.68;6.07;;;17.10;99.90;;;;;;4997530;28;20129;-45
2023/09/06 05:13:02;;;;;;;9.13;6.03;;;17.10;99.90;;;;;;4997735;28;20521;-47
2023/09/06 05:15:28;;;;;;;8.07;5.53;;;17.10;99.90;;;;;;4997683;28;20038;-47
2023/09/06 05:17:54;;;;;;;9.40;6.22;;;17.10;99.90;;;;;;5012830;28;20061;-46
2023/09/06 05:20:33;;;;;;;9.07;6.07;;;17.00;99.90;;;;;;4980390;28;20137;-44
2023/09/06 05:23:03;;;;;;;8.63;6.22;;;17.10;99.90;;;;;;4997571;28;20108;-49
2023/09/06 05:25:29;;;;;;;9.35;6.05;;;17.10;99.90;;;;;;4997297;28;20042;-47
2023/09/06 05:28:01;;;;;;;7.60;5.63;;;17.10;99.90;;;;;;4997521;28;20086;-44
2023/09/06 05:30:27;;;;;;;8.90;5.95;;;17.10;99.90;;;;;;4997103;28;20499;-44
2023/09/06 05:32:56;;;;;;;8.00;5.65;;;17.10;99.90;;;;;;4980085;28;20133;-43
2023/09/06 05:35:25;;;;;;;9.13;6.05;;;17.10;99.90;;;;;;4997262;28;20058;-43
2023/09/06 05:37:51;;;;;;;10.63;5.82;;;17.10;99.90;;;;;;4997084;28;20094;-43
2023/09/06 05:40:22;;;;;;;7.10;5.15;;;17.10;99.90;;;;;;4997214;28;20129;-44
2023/09/06 05:42:52;;;;;;;9.55;5.28;;;17.20;99.90;;;;;;4997212;28;20553;-43
2023/09/06 05:45:20;;;;;;;8.82;5.60;;;17.20;99.90;;;;;;4996873;28;20054;-43
2023/09/06 05:47:46;;;;;;;7.70;5.32;;;17.30;99.90;;;;;;4997142;28;20133;-43
2023/09/06 05:50:12;;;;;;;7.25;5.18;;;17.30;99.90;;;;;;4997086;28;20478;-43
2023/09/06 05:52:38;;;;;;;8.85;5.80;;;17.40;99.90;;;;;;4996768;28;20046;-44
2023/09/06 05:55:04;;;;;;;7.05;4.75;;;17.40;99.90;;;;;;4996941;28;20411;-43
2023/09/06 05:57:31;;;;;;;8.48;5.47;;;17.40;99.90;;;;;;5012085;28;20058;-43
2023/09/06 05:59:57;;;;;;;7.75;4.82;;;17.40;99.90;;;;;;4996969;28;20050;-43
2023/09/06 06:02:24;;;;;;;9.77;5.75;;;17.40;99.90;;;;;;4996604;28;20418;-43
2023/09/06 06:04:50;;;;;;;6.97;5.28;;;17.50;99.90;;;;;;4996683;28;20050;-43
2023/09/06 06:07:16;;;;;;;8.07;5.38;;;17.40;99.90;;;;;;4996723;28;20052;-43
2023/09/06 06:09:43;;;;;;;7.93;5.15;;;17.50;99.90;;;;;;4996126;28;20047;-43
2023/09/06 06:12:10;;;;;;;8.70;5.38;;;17.50;99.90;;;;;;4996597;28;20092;-43
2023/09/06 06:14:36;;;;;;;9.48;5.63;;;17.60;99.90;;;;;;5011821;28;20108;-43
2023/09/06 06:17:06;;;;;;;8.57;5.30;;;17.60;99.90;;;;;;4996375;28;20046;-43
2023/09/06 06:19:33;;;;;;;8.63;5.63;;;17.70;99.90;;;;;;4996292;28;20474;-43
2023/09/06 06:22:02;;;;;;;8.40;5.32;;;17.70;99.90;;;;;;4996478;28;20053;-43
2023/09/06 06:24:29;;;;;;;7.93;5.25;;;17.80;99.90;;;;;;4996236;28;20046;-43
2023/09/06 06:26:55;;;;;;;7.90;5.38;;;17.90;99.90;;;;;;4996229;28;20050;-43
2023/09/06 06:29:22;;;;;;;8.23;5.07;;;18.00;99.90;;;;;;4996342;28;20130;-43
2023/09/06 06:31:48;;;;;;;8.45;5.53;;;18.00;99.90;;;;;;4996227;28;20046;-43
2023/09/06 06:34:14;;;;;;;8.45;5.90;;;18.10;99.90;;;;;;4978693;28;20112;-43
2023/09/06 06:36:40;;;;;;;8.20;5.63;;;18.10;99.90;;;;;;4996567;28;20117;-43
2023/09/06 06:39:07;;;;;;;7.65;5.28;;;18.20;99.90;;;;;;4996453;28;20089;-43
2023/09/06 06:41:32;;;;;;;9.30;5.13;;;18.30;99.90;;;;;;4996106;28;20057;-43
2023/09/06 06:43:58;;;;;;;10.93;5.47;;;18.30;99.90;;;;;;4993882;28;20058;-43
2023/09/06 06:46:35;;;;;;;7.93;5.28;;;18.40;99.90;;;;;;4995761;28;20542;-43
2023/09/06 06:49:04;;;;;;;6.93;4.82;;;18.50;99.90;;;;;;4995788;28;20483;-43
2023/09/06 06:51:34;;;;;;;8.40;5.72;;;18.90;99.90;;;;;;4995878;28;20049;-43
2023/09/06 06:54:04;;;;;;;8.55;4.80;;;19.30;99.90;;;;;;4996118;28;20046;-43
2023/09/06 06:56:29;;;;;;;7.88;5.20;;;19.40;99.90;;;;;;4995771;28;20045;-43
2023/09/06 06:58:55;;;;;;;8.38;5.47;;;19.50;99.90;;;;;;4995748;28;20415;-44
2023/09/06 07:01:23;;;;;;;8.02;4.97;;;19.60;99.90;;;;;;4995504;28;20053;-43
2023/09/06 07:03:48;;;;;;;8.10;5.30;;;19.60;99.90;;;;;;4995730;28;20052;-43
2023/09/06 07:06:14;;;;;;;7.43;4.55;;;19.50;99.90;;;;;;4995585;28;20129;-43
2023/09/06 07:08:40;;;;;;;7.25;4.65;;;19.50;99.90;;;;;;4995782;28;20050;-43
2023/09/06 07:11:06;;;;;;;6.85;4.53;;;19.60;99.90;;;;;;4978344;28;20050;-43
2023/09/06 07:13:33;;;;;;;8.45;5.35;;;19.60;99.90;;;;;;4995327;28;20054;-43
2023/09/06 07:15:59;;;;;;;7.32;4.57;;;19.70;99.90;;;;;;4978139;28;20054;-43
2023/09/06 07:18:25;;;;;;;6.72;4.60;;;19.70;99.90;;;;;;4995448;28;20058;-44
2023/09/06 07:20:50;;;;;;;7.20;4.53;;;19.80;99.90;;;;;;4995392;28;20137;-43
2023/09/06 07:23:16;;;;;;;6.40;4.20;;;19.80;99.90;;;;;;4994456;28;20042;-43
2023/09/06 07:25:46;;;;;;;7.30;4.65;;;19.80;99.90;;;;;;4995302;28;20038;-43
2023/09/06 07:28:15;;;;;;;7.82;4.18;;;19.80;99.90;;;;;;4995167;28;20104;-43
2023/09/06 07:30:42;;;;;;;6.78;4.47;;;19.80;99.90;;;;;;4995615;28;20442;-43
2023/09/06 07:33:08;;;;;;;6.88;4.30;;;19.90;99.90;;;;;;4995710;28;20050;-44
2023/09/06 07:35:34;;;;;;;;;;;19.90;99.90;;;;;;4995709;28;20100;-43
2023/09/06 07:38:00;;;;;;;8.15;4.65;;;19.90;99.90;;;;;;4977923;28;20381;-43
2023/09/06 07:40:26;;;;;;;6.72;4.03;;;20.00;99.90;;;;;;4977923;28;20058;-43
2023/09/06 07:42:52;;;;;;;6.18;3.70;;;20.00;99.90;;;;;;4994758;28;20498;-43
2023/09/06 07:45:19;;;;;;;6.43;3.60;;;20.10;99.90;;;;;;4994790;28;20065;-43
2023/09/06 07:47:44;;;;;;;5.85;3.20;;;20.10;99.90;;;;;;4977643;28;20050;-43
2023/09/06 07:50:10;;;;;;;7.60;4.03;;;20.10;99.90;;;;;;4994900;28;20056;-43
2023/09/06 07:52:37;;;;;;;5.78;2.95;;;20.20;99.90;;;;;;4977520;28;20046;-43
2023/09/06 07:55:07;;;;;;;5.47;3.10;;;20.20;99.90;;;;;;4994607;28;20042;-44
2023/09/06 07:57:33;;;;;;;6.75;3.33;;;20.20;99.90;;;;;;4994709;28;20060;-44
2023/09/06 07:59:59;;;;;;;5.35;2.75;;;20.30;99.90;;;;;;4994731;28;20046;-43
2023/09/06 08:02:25;;;;;;;5.22;2.50;;;20.30;99.90;;;;;;4994708;28;20046;-43
2023/09/06 08:04:50;;;;;;;5.43;2.78;;;20.30;99.90;;;;;;4977470;28;20050;-43
2023/09/06 08:07:17;;;;;;;6.22;2.95;;;20.40;99.90;;;;;;4994463;28;20053;-43
2023/09/06 08:09:43;;;;;;;5.53;2.63;;;20.40;99.90;;;;;;4994640;28;20050;-44
2023/09/06 08:12:08;;;;;;;5.03;2.70;;;20.50;99.90;;;;;;4994258;28;20097;-43
2023/09/06 08:14:34;;;;;;;5.78;2.50;;;20.60;99.90;;;;;;4994732;28;20207;-43
2023/09/06 08:17:00;;;;;;;4.38;2.47;;;20.60;99.90;;;;;;4994770;28;20113;-43
2023/09/06 08:19:25;;;;;;;4.90;2.60;;;20.60;99.90;;;;;;4994390;28;20061;-43
2023/09/06 08:21:51;;;;;;;5.03;2.45;;;20.70;99.90;;;;;;4994384;28;20061;-43
2023/09/06 08:24:18;;;;;;;5.28;2.05;;;20.80;99.90;;;;;;4994716;28;20046;-43
2023/09/06 08:26:50;;;;;;;6.10;2.25;;;20.80;99.90;;;;;;4994118;28;20140;-43
2023/09/06 08:29:16;;;;;;;5.75;2.15;;;20.90;99.90;;;;;;4994157;28;20475;-43
2023/09/06 08:31:42;;;;;;;4.35;1.80;;;20.90;99.90;;;;;;4994285;28;20057;-44
2023/09/06 08:34:09;;;;;;;3.67;1.70;;;21.00;99.90;;;;;;4994046;28;20038;-44
2023/09/06 08:36:35;;;;;;;3.15;1.67;;;21.10;99.90;;;;;;4994160;28;20043;-43
2023/09/06 08:39:00;;;;;;;4.03;1.90;;;21.10;99.90;;;;;;4994128;28;20060;-44
2023/09/06 08:41:27;;;;;;;3.92;1.77;;;21.20;99.90;;;;;;4994182;28;20108;-44
2023/09/06 08:43:53;;;;;;;3.22;1.40;;;21.30;99.90;;;;;;4993850;28;20554;-44
2023/09/06 08:46:27;;;;;;;2.97;1.42;;;21.30;99.90;;;;;;4994020;28;20494;-43
2023/09/06 08:48:55;;;;;;;4.22;1.42;;;21.30;99.90;;;;;;4994264;28;20129;-44
2023/09/06 08:51:22;;;;;;;2.78;1.33;;;21.40;99.90;;;;;;4994131;28;20050;-45
2023/09/06 08:53:48;;;;;;;4.15;1.60;;;21.50;99.90;;;;;;4976873;28;20470;-44
2023/09/06 08:56:17;;;;;;;3.88;1.35;;;21.50;99.90;;;;;;5009062;28;20130;-44
2023/09/06 08:58:43;;;;;;;2.55;1.10;;;21.60;99.90;;;;;;4976919;28;20046;-43
2023/09/06 09:01:09;;;;;;;3.33;1.40;;;21.70;99.90;;;;;;4994059;28;20046;-44
2023/09/06 09:03:35;;;;;;;2.55;1.20;;;21.80;99.90;;;;;;4994255;28;20042;-44
2023/09/06 09:06:06;;;;;;;4.78;1.20;;;21.90;99.90;;;;;;4993909;28;20464;-43
2023/09/06 09:08:33;;;;;;;5.25;1.60;;;22.00;99.90;;;;;;4993709;28;20101;-43
2023/09/06 09:11:07;;;;;;;2.65;1.25;;;22.00;99.90;;;;;;4993980;28;20057;-43
2023/09/06 09:13:33;;;;;;;4.65;1.45;;;22.10;99.90;;;;;;4993882;28;20101;-45
2023/09/06 09:15:58;;;;;;;3.22;1.30;;;22.20;99.90;;;;;;4993971;28;20054;-43
2023/09/06 09:18:28;;;;;;;3.00;1.00;;;22.20;99.90;;;;;;4993737;28;20078;-44
2023/09/06 09:20:55;;;;;;;3.75;1.30;;;22.30;99.90;;;;;;4976492;28;20198;-44
2023/09/06 09:23:20;;;;;;;2.75;1.20;;;22.40;99.90;;;;;;4994268;28;20050;-44
2023/09/06 09:25:48;;;;;;;2.95;1.20;;;22.40;99.90;;;;;;4993744;28;20054;-43
2023/09/06 09:28:15;;;;;;;3.30;1.40;;;22.50;99.90;;;;;;4994208;28;20051;-43
2023/09/06 09:30:41;;;;;;;2.60;1.10;;;22.60;99.90;;;;;;4993868;28;20050;-43
2023/09/06 09:33:06;;;;;;;2.20;1.17;;;22.60;99.90;;;;;;4993770;28;20514;-43
2023/09/06 09:35:32;;;;;;;3.55;1.40;;;22.70;99.90;;;;;;4993694;28;20495;-43
2023/09/06 09:38:00;;;;;;;3.35;1.23;;;22.80;99.90;;;;;;4993584;28;20491;-44
2023/09/06 09:40:36;;;;;;;3.50;1.30;;;22.80;99.90;;;;;;4993637;28;20090;-43
2023/09/06 09:43:04;;;;;;;2.85;1.30;;;22.90;99.90;;;;;;4993646;28;20487;-43
2023/09/06 09:45:43;;;;;;;2.97;1.25;;;22.90;99.90;;;;;;4977210;28;20050;-43
2023/09/06 09:48:09;;;;;;;3.50;1.55;;;23.00;99.90;;;;;;4997103;28;20054;-43
2023/09/06 09:50:36;;;;;;;;;;;23.10;99.90;;;;;;4997254;28;20137;-43
2023/09/06 09:53:05;;;;;;;3.20;1.33;;;23.20;99.90;;;;;;4997153;28;19925;-43
2023/09/06 09:55:34;;;;;;;2.13;1.00;;;23.20;99.90;;;;;;4997309;28;20038;-44
2023/09/06 09:58:05;;;;;;;3.17;1.40;;;23.40;99.90;;;;;;4996938;28;20046;-44
2023/09/06 10:00:32;;;;;;;2.90;1.38;;;23.40;99.90;;;;;;4996981;28;20056;-43
2023/09/06 10:03:00;;;;;;;3.53;1.20;;;23.50;99.90;;;;;;4996866;28;20050;-43
2023/09/06 10:05:26;;;;;;;3.28;1.35;;;23.60;99.90;;;;;;4996564;28;20513;-43
2023/09/06 10:07:58;;;;;;;2.72;0.90;;;23.70;99.90;;;;;;4996802;28;20137;-44
2023/09/06 10:10:24;;;;;;;2.33;1.15;;;23.80;99.90;;;;;;4996923;28;20455;-43
2023/09/06 10:12:52;;;;;;;2.80;1.38;;;23.90;99.90;;;;;;4996691;28;20054;-44
2023/09/06 10:15:20;;;;;;;2.70;1.00;;;24.00;99.90;;;;;;4996516;28;20098;-43
2023/09/06 10:17:54;;;;;;;2.75;1.38;;;24.10;99.90;;;;;;4996662;28;20046;-43
2023/09/06 10:20:23;;;;;;;3.17;1.17;;;24.20;99.90;;;;;;4997026;28;20456;-44
2023/09/06 10:22:52;;;;;;;2.10;1.00;;;24.40;99.90;;;;;;4979416;28;20038;-44
2023/09/06 10:25:21;;;;;;;2.70;1.13;;;24.40;99.90;;;;;;4979141;28;20518;-44
2023/09/06 10:27:54;;;;;;;2.38;1.20;;;24.60;99.90;;;;;;4996206;28;20050;-44
2023/09/06 10:30:34;;;;;;;3.05;1.20;;;24.70;99.90;;;;;;4979316;28;20398;-44
2023/09/06 10:33:03;;;;;;;4.07;1.25;;;24.80;99.90;;;;;;4996300;28;20108;-44
2023/09/06 10:35:32;;;;;;;1.83;0.90;;;24.90;99.90;;;;;;4996225;28;20101;-44
2023/09/06 10:38:06;;;;;;;2.50;1.30;;;25.00;99.90;;;;;;4996166;28;20050;-43
2023/09/06 10:40:47;;;;;;;2.58;1.17;;;25.20;99.90;;;;;;4979100;28;20054;-44
2023/09/06 10:43:14;;;;;;;3.70;1.00;;;25.30;99.90;;;;;;4996045;28;20566;-44
2023/09/06 10:45:43;;;;;;;3.00;1.13;;;25.40;99.90;;;;;;4996151;28;20057;-43
2023/09/06 10:48:10;;;;;;;2.20;1.00;;;25.50;99.90;;;;;;4995990;28;20089;-44
2023/09/06 10:50:36;;;;;;;3.08;1.15;;;25.70;99.90;;;;;;4995882;28;20042;-44
2023/09/06 10:53:03;;;;;;;2.63;0.95;;;25.80;99.90;;;;;;4995772;28;20113;-44
2023/09/06 10:55:42;;;;;;;3.50;1.10;;;26.00;99.90;;;;;;4995957;28;20049;-43
2023/09/06 10:58:10;;;;;;;2.60;1.10;;;26.10;99.90;;;;;;4978842;28;20057;-43
2023/09/06 11:00:36;;;;;;;2.88;1.27;;;26.20;99.90;;;;;;4978676;28;20084;-44
2023/09/06 11:03:08;;;;;;;2.10;1.00;;;26.30;99.90;;;;;;4995729;28;20053;-43
2023/09/06 11:05:35;;;;;;;2.45;0.90;;;26.40;99.90;;;;;;4995767;28;20057;-44
2023/09/06 11:08:02;;;;;;;2.40;0.80;;;26.60;99.90;;;;;;4995710;28;20136;-43
2023/09/06 11:10:28;;;;;;;2.65;1.08;;;26.60;99.90;;;;;;4995896;28;20407;-44
2023/09/06 11:13:07;;;;;;;2.28;0.88;;;26.80;99.90;;;;;;4995554;28;20100;-43
2023/09/06 11:15:35;;;;;;;1.55;0.80;;;26.90;99.90;;;;;;4995549;28;20121;-43
2023/09/06 11:18:02;;;;;;;2.63;1.13;;;27.00;99.90;;;;;;5010566;28;20116;-43
2023/09/06 11:20:30;;;;;;;3.40;1.00;;;27.20;99.90;;;;;;4995468;28;20050;-43
2023/09/06 11:22:58;;;;;;;2.22;0.80;;;27.20;99.90;;;;;;4995343;28;20050;-43
2023/09/06 11:25:25;;;;;;;3.05;0.98;;;27.30;99.90;;;;;;4995168;28;20141;-43
2023/09/06 11:27:55;;;;;;;2.85;0.90;;;27.40;99.90;;;;;;4995203;28;20046;-43
2023/09/06 11:30:23;;;;;;;3.25;1.10;;;27.50;99.90;;;;;;4995177;28;20046;-44
2023/09/06 11:32:49;;;;;;;2.35;0.77;;;27.60;99.90;;;;;;4995571;28;20072;-43
2023/09/06 11:35:16;;;;;;;2.58;0.95;;;27.70;99.90;;;;;;4993984;28;20391;-44
2023/09/06 11:37:46;;;;;;;2.70;0.95;;;27.80;99.90;;;;;;4995151;28;20061;-45
2023/09/06 11:40:14;;;;;;;2.35;1.00;;;27.90;99.90;;;;;;4995104;28;20050;-44
2023/09/06 11:42:47;;;;;;;2.75;1.10;;;28.00;99.90;;;;;;4977932;28;20130;-45
2023/09/06 11:45:17;;;;;;;1.88;0.82;;;28.00;99.90;;;;;;4992806;28;20058;-43
2023/09/06 11:47:44;;;;;;;3.03;1.17;;;28.10;99.90;;;;;;4995081;28;20486;-43
2023/09/06 11:50:12;;;;;;;3.00;0.80;;;28.10;99.90;;;;;;4994943;28;20049;-43
2023/09/06 11:52:40;;;;;;;2.40;0.82;;;28.20;99.90;;;;;;4995073;28;20403;-43
2023/09/06 11:55:09;;;;;;;3.15;1.10;;;28.30;99.90;;;;;;4994862;28;20057;-43
2023/09/06 11:57:38;;;;;;;1.70;0.77;;;28.40;99.90;;;;;;4994648;28;20056;-43
2023/09/06 12:00:19;;;;;;;2.03;0.85;;;28.50;99.90;;;;;;4994787;28;20050;-43
2023/09/06 12:02:48;;;;;;;2.08;0.90;;;28.60;99.90;;;;;;4994969;28;20399;-44
2023/09/06 12:05:16;;;;;;;2.35;1.05;;;28.60;99.90;;;;;;4994390;28;20077;-45
2023/09/06 12:07:43;;;;;;;1.95;1.00;;;28.60;99.90;;;;;;4994079;28;20503;-44
2023/09/06 12:10:09;;;;;;;2.97;0.90;;;28.70;99.90;;;;;;4994504;28;20057;-44
2023/09/06 12:12:44;;;;;;;1.88;0.80;;;28.80;99.90;;;;;;4994727;28;20487;-43
2023/09/06 12:15:19;;;;;;;2.58;0.93;;;28.80;99.90;;;;;;4994356;28;20610;-43
2023/09/06 12:17:49;;;;;;;1.77;0.80;;;28.80;99.90;;;;;;4994449;28;20050;-44
2023/09/06 12:20:19;;;;;;;2.00;0.85;;;28.90;99.90;;;;;;4994336;28;20100;-44
2023/09/06 12:22:46;;;;;;;2.75;1.00;;;28.90;99.90;;;;;;4994550;28;20121;-43
2023/09/06 12:25:14;;;;;;;2.05;1.10;;;29.00;99.90;;;;;;4994332;28;20046;-44
2023/09/06 12:27:41;;;;;;;2.45;0.93;;;29.10;99.90;;;;;;4994493;28;20068;-44
2023/09/06 12:30:09;;;;;;;1.92;0.80;;;29.20;99.90;;;;;;4994379;28;20081;-43
2023/09/06 12:32:45;;;;;;;2.70;0.80;;;29.20;99.90;;;;;;4994148;28;20061;-44
2023/09/06 12:35:11;;;;;;;2.00;0.70;;;29.20;99.90;;;;;;4994296;28;20035;-43
2023/09/06 12:37:38;;;;;;;1.60;0.70;;;29.30;99.90;;;;;;4994263;28;20054;-44
2023/09/06 12:40:10;;;;;;;1.85;0.80;;;29.30;99.90;;;;;;4994199;28;20485;-44
2023/09/06 12:42:47;;;;;;;1.35;0.70;;;29.40;99.90;;;;;;4994183;28;20086;-43
2023/09/06 12:45:31;;;;;;;;;;;29.40;99.90;;;;;;4992367;28;20507;-43
2023/09/06 12:47:58;;;;;;;3.28;1.00;;;29.40;99.90;;;;;;4976804;28;19976;-43
2023/09/06 12:50:25;;;;;;;2.63;0.90;;;29.50;99.90;;;;;;4994107;28;20399;-43
2023/09/06 12:52:51;;;;;;;2.00;0.85;;;29.50;99.90;;;;;;4994092;28;20042;-44